createdAt,value
2017-10-23T00:00:51.024Z,69.60
2017-10-23T00:03:18.555Z,69.50
2017-10-23T00:05:46.110Z,69.60
2017-10-23T00:08:13.654Z,69.60
2017-10-23T00:10:41.182Z,69.60
2017-10-23T00:13:08.754Z,69.50
2017-10-23T00:15:36.255Z,69.50
2017-10-23T00:18:03.782Z,69.50
2017-10-23T00:20:31.352Z,69.40
2017-10-23T00:22:58.894Z,69.50
2017-10-23T00:25:26.426Z,69.50
2017-10-23T00:27:53.970Z,69.50
2017-10-23T00:30:22.262Z,69.40
2017-10-23T00:32:49.781Z,69.30
2017-10-23T00:35:17.334Z,69.30
2017-10-23T00:37:44.847Z,69.50
2017-10-23T00:42:42.747Z,68.70
2017-10-23T00:45:10.274Z,69.30
2017-10-23T00:47:37.782Z,69.20
2017-10-23T00:50:05.771Z,68.60
2017-10-23T00:52:33.302Z,69.30
2017-10-23T00:55:00.811Z,69.20
2017-10-23T00:57:29.106Z,70.10
2017-10-23T00:59:56.663Z,69.20
2017-10-23T01:02:24.194Z,68.60
2017-10-23T01:04:51.742Z,69.20
2017-10-23T01:07:19.270Z,69.20
2017-10-23T01:09:46.798Z,69.10
2017-10-23T01:12:14.622Z,69.20
2017-10-23T01:14:42.141Z,69.10
2017-10-23T01:17:09.674Z,69.10
2017-10-23T01:22:06.128Z,68.50
2017-10-23T01:24:35.187Z,68.50
2017-10-23T01:27:02.742Z,69.10
2017-10-23T01:29:30.276Z,69.00
2017-10-23T01:31:57.789Z,69.00
2017-10-23T01:34:26.478Z,68.50
2017-10-23T01:36:55.520Z,68.50
2017-10-23T01:39:23.067Z,69.10
2017-10-23T01:41:50.675Z,69.00
2017-10-23T01:44:18.218Z,69.00
2017-10-23T01:46:46.122Z,69.00
2017-10-23T01:49:14.416Z,69.00
2017-10-23T01:51:41.934Z,69.00
2017-10-23T01:54:09.434Z,69.00
2017-10-23T01:56:36.981Z,69.00
2017-10-23T01:59:05.255Z,69.00
2017-10-23T02:01:33.522Z,69.00
2017-10-23T02:06:30.687Z,69.00
2017-10-23T02:11:27.106Z,69.00
2017-10-23T02:13:54.619Z,69.00
2017-10-23T02:16:22.911Z,68.90
2017-10-23T02:18:50.459Z,69.00
2017-10-23T02:21:17.963Z,68.90
2017-10-23T02:23:45.492Z,68.90
2017-10-23T02:26:13.058Z,68.90
2017-10-23T02:28:41.326Z,68.30
2017-10-23T02:31:08.858Z,68.80
2017-10-23T02:33:37.172Z,68.90
2017-10-23T02:36:04.671Z,68.80
2017-10-23T02:38:32.170Z,68.80
2017-10-23T02:40:59.714Z,68.80
2017-10-23T02:43:27.982Z,68.90
2017-10-23T02:45:55.495Z,68.90
2017-10-23T02:48:23.018Z,68.90
2017-10-23T02:50:51.339Z,68.90
2017-10-23T02:53:18.854Z,68.80
2017-10-23T02:55:46.395Z,68.80
2017-10-23T02:58:14.664Z,69.00
2017-10-23T03:00:42.182Z,68.80
2017-10-23T03:03:09.726Z,69.70
2017-10-23T03:05:37.234Z,68.80
2017-10-23T03:08:04.743Z,68.80
2017-10-23T03:10:32.310Z,68.80
2017-10-23T03:12:59.878Z,68.80
2017-10-23T03:15:27.413Z,68.80
2017-10-23T03:17:54.966Z,68.80
2017-10-23T03:20:22.506Z,68.80
2017-10-23T03:22:50.794Z,68.80
2017-10-23T03:25:19.114Z,68.80
2017-10-23T03:27:46.622Z,68.60
2017-10-23T03:30:14.919Z,68.50
2017-10-23T03:32:42.467Z,68.60
2017-10-23T03:35:10.759Z,68.70
2017-10-23T03:37:38.298Z,68.60
2017-10-23T03:40:06.638Z,68.70
2017-10-23T03:42:34.175Z,68.60
2017-10-23T03:45:01.695Z,68.70
2017-10-23T03:47:30.042Z,68.60
2017-10-23T03:49:57.562Z,68.60
2017-10-23T03:52:25.097Z,68.60
2017-10-23T03:54:53.423Z,68.60
2017-10-23T03:57:20.954Z,68.50
2017-10-23T03:59:48.471Z,68.60
2017-10-23T04:02:15.999Z,68.50
2017-10-23T04:04:43.530Z,68.60
2017-10-23T04:07:11.038Z,68.00
2017-10-23T04:09:39.384Z,67.90
2017-10-23T04:12:06.918Z,68.50
2017-10-23T04:14:34.458Z,68.60
2017-10-23T04:19:30.850Z,67.90
2017-10-23T04:21:58.375Z,68.50
2017-10-23T04:24:27.449Z,67.90
2017-10-23T04:26:55.040Z,68.40
2017-10-23T04:29:22.572Z,68.90
2017-10-23T04:31:50.119Z,68.40
2017-10-23T04:34:17.626Z,68.40
2017-10-23T04:36:45.154Z,68.40
2017-10-23T04:39:12.737Z,68.40
2017-10-23T04:41:41.030Z,68.50
2017-10-23T04:44:08.537Z,68.40
2017-10-23T04:46:36.114Z,68.40
2017-10-23T04:49:03.623Z,68.40
2017-10-23T04:51:31.154Z,68.60
2017-10-23T04:53:58.721Z,68.40
2017-10-23T04:56:26.226Z,68.40
2017-10-23T04:58:53.727Z,68.40
2017-10-23T05:01:22.027Z,68.50
2017-10-23T05:03:49.551Z,68.40
2017-10-23T05:06:17.856Z,68.50
2017-10-23T05:08:45.510Z,68.50
2017-10-23T05:11:13.046Z,68.50
2017-10-23T05:13:41.331Z,66.10
2017-10-23T05:16:10.023Z,67.10
2017-10-23T05:18:38.302Z,68.10
2017-10-23T05:21:07.320Z,67.60
2017-10-23T05:23:35.642Z,67.50
2017-10-23T05:26:03.173Z,67.50
2017-10-23T05:28:30.694Z,68.10
2017-10-23T05:30:59.766Z,65.90
2017-10-23T05:33:27.291Z,66.40
2017-10-23T05:35:54.810Z,65.00
2017-10-23T05:38:23.138Z,62.20
2017-10-23T05:40:50.667Z,62.10
2017-10-23T05:43:18.179Z,59.30
2017-10-23T05:45:45.738Z,54.30
2017-10-23T05:48:13.252Z,52.40
2017-10-23T05:50:40.761Z,51.20
2017-10-23T05:53:08.303Z,49.50
2017-10-23T05:55:35.811Z,50.40
2017-10-23T05:58:03.341Z,53.20
2017-10-23T06:00:32.046Z,56.40
2017-10-23T06:03:00.310Z,59.70
2017-10-23T06:05:28.971Z,60.70
2017-10-23T06:07:58.002Z,61.30
2017-10-23T06:10:27.023Z,60.80
2017-10-23T06:12:54.574Z,61.50
2017-10-23T06:15:22.127Z,61.30
2017-10-23T06:17:49.659Z,61.40
2017-10-23T06:22:46.050Z,61.60
2017-10-23T06:25:13.578Z,61.70
2017-10-23T06:27:41.854Z,62.00
2017-10-23T06:30:10.193Z,62.20
2017-10-23T06:32:38.079Z,62.10
2017-10-23T06:35:06.379Z,62.30
2017-10-23T06:37:34.698Z,62.40
2017-10-23T06:40:02.278Z,62.40
2017-10-23T06:42:29.797Z,62.50
2017-10-23T06:44:57.330Z,62.60
2017-10-23T06:47:25.626Z,62.70
2017-10-23T06:49:53.161Z,62.70
2017-10-23T06:52:21.495Z,62.90
2017-10-23T06:54:49.042Z,62.80
2017-10-23T06:57:16.563Z,62.80
2017-10-23T06:59:44.903Z,63.00
2017-10-23T07:02:12.437Z,63.00
2017-10-23T07:04:39.975Z,63.10
2017-10-23T07:07:07.514Z,63.10
2017-10-23T07:09:35.042Z,63.20
2017-10-23T07:12:02.579Z,63.30
2017-10-23T07:14:30.150Z,63.30
2017-10-23T07:16:57.687Z,63.30
2017-10-23T07:19:25.191Z,63.40
2017-10-23T07:21:52.751Z,63.40
2017-10-23T07:24:20.263Z,63.50
2017-10-23T07:26:47.791Z,63.50
2017-10-23T07:29:16.490Z,62.90
2017-10-23T07:31:44.759Z,63.60
2017-10-23T07:34:13.058Z,63.60
2017-10-23T07:36:40.635Z,63.60
2017-10-23T07:39:08.169Z,63.60
2017-10-23T07:41:35.699Z,63.60
2017-10-23T07:44:03.259Z,63.70
2017-10-23T07:46:30.789Z,63.70
2017-10-23T07:48:58.324Z,63.80
2017-10-23T07:51:25.898Z,63.80
2017-10-23T07:53:53.402Z,63.80
2017-10-23T07:56:22.454Z,63.20
2017-10-23T07:58:50.019Z,63.70
2017-10-23T08:01:17.534Z,63.80
2017-10-23T08:03:45.799Z,63.80
2017-10-23T08:06:14.094Z,63.80
2017-10-23T08:08:41.595Z,63.80
2017-10-23T08:11:09.090Z,63.90
2017-10-23T08:13:38.138Z,63.30
2017-10-23T08:16:05.669Z,63.90
2017-10-23T08:18:33.194Z,63.90
2017-10-23T08:21:01.520Z,63.90
2017-10-23T08:23:29.023Z,63.80
2017-10-23T08:25:56.532Z,64.70
2017-10-23T08:28:24.050Z,64.00
2017-10-23T08:30:51.562Z,64.00
2017-10-23T08:33:19.111Z,64.00
2017-10-23T08:35:46.659Z,64.00
2017-10-23T08:38:14.166Z,64.00
2017-10-23T08:40:41.663Z,64.00
2017-10-23T08:43:09.986Z,64.00
2017-10-23T08:45:37.499Z,63.90
2017-10-23T08:48:05.007Z,64.10
2017-10-23T08:50:32.575Z,64.10
2017-10-23T08:53:00.118Z,63.90
2017-10-23T08:55:27.652Z,63.90
2017-10-23T08:57:55.187Z,64.00
2017-10-23T09:00:22.691Z,63.90
2017-10-23T09:02:50.191Z,64.00
2017-10-23T09:05:17.717Z,64.00
2017-10-23T09:07:45.618Z,64.00
2017-10-23T09:10:13.162Z,64.00
2017-10-23T09:12:40.710Z,63.90
2017-10-23T09:15:08.243Z,64.00
2017-10-23T09:17:35.746Z,63.40
2017-10-23T09:20:03.319Z,64.00
2017-10-23T09:22:31.590Z,64.60
2017-10-23T09:24:59.094Z,64.00
2017-10-23T09:27:26.635Z,64.10
2017-10-23T09:29:54.922Z,64.00
2017-10-23T09:32:22.451Z,64.00
2017-10-23T09:34:50.008Z,64.00
2017-10-23T09:37:17.531Z,64.10
2017-10-23T09:39:45.034Z,64.10
2017-10-23T09:42:12.574Z,64.10
2017-10-23T09:44:40.079Z,64.20
2017-10-23T09:47:07.582Z,64.00
2017-10-23T09:49:35.124Z,63.90
2017-10-23T09:52:02.621Z,64.00
2017-10-23T09:54:30.199Z,64.00
2017-10-23T09:56:58.503Z,64.00
2017-10-23T09:59:26.010Z,63.90
2017-10-23T10:01:53.535Z,64.00
2017-10-23T10:04:21.073Z,64.00
2017-10-23T10:06:48.574Z,64.00
2017-10-23T10:09:16.106Z,64.00
2017-10-23T10:11:43.666Z,64.00
2017-10-23T10:14:11.202Z,64.00
2017-10-23T10:16:39.491Z,64.00
2017-10-23T10:19:07.034Z,64.00
2017-10-23T10:21:35.326Z,64.00
2017-10-23T10:24:02.863Z,64.00
2017-10-23T10:26:31.194Z,64.00
2017-10-23T10:28:58.695Z,64.00
2017-10-23T10:31:26.959Z,64.00
2017-10-23T10:33:54.479Z,63.90
2017-10-23T10:36:21.998Z,64.00
2017-10-23T10:38:50.271Z,64.00
2017-10-23T10:41:18.570Z,64.00
2017-10-23T10:43:46.066Z,64.00
2017-10-23T10:46:13.597Z,64.00
2017-10-23T10:48:41.134Z,64.00
2017-10-23T10:51:09.418Z,64.00
2017-10-23T10:53:37.713Z,64.00
2017-10-23T10:56:05.263Z,63.90
2017-10-23T10:58:32.767Z,64.00
2017-10-23T11:01:00.288Z,64.00
2017-10-23T11:03:27.830Z,63.30
2017-10-23T11:05:56.093Z,63.40
2017-10-23T11:08:24.366Z,62.70
2017-10-23T11:10:52.654Z,62.00
2017-10-23T11:13:20.922Z,63.00
2017-10-23T11:15:49.226Z,61.60
2017-10-23T11:18:16.817Z,60.90
2017-10-23T11:20:44.374Z,59.30
2017-10-23T11:23:11.890Z,59.60
2017-10-23T11:25:40.206Z,60.70
2017-10-23T11:28:07.715Z,60.60
2017-10-23T11:30:36.015Z,61.20
2017-10-23T11:33:03.587Z,61.10
2017-10-23T11:35:31.113Z,61.30
2017-10-23T11:37:59.396Z,61.30
2017-10-23T11:40:27.686Z,61.40
2017-10-23T11:42:55.219Z,61.20
2017-10-23T11:45:23.495Z,61.60
2017-10-23T11:47:51.034Z,61.60
2017-10-23T11:50:18.971Z,62.00
2017-10-23T11:52:46.474Z,61.90
2017-10-23T11:55:13.994Z,61.50
2017-10-23T11:57:41.495Z,61.70
2017-10-23T12:00:08.995Z,61.20
2017-10-23T12:02:36.561Z,61.90
2017-10-23T12:05:04.070Z,61.80
2017-10-23T12:07:31.573Z,61.90
2017-10-23T12:09:59.106Z,61.60
2017-10-23T12:12:27.730Z,61.90
2017-10-23T12:14:55.294Z,61.90
2017-10-23T12:17:23.634Z,61.80
2017-10-23T12:19:51.922Z,61.80
2017-10-23T12:22:20.580Z,61.40
2017-10-23T12:24:48.915Z,61.80
2017-10-23T12:27:16.422Z,61.80
2017-10-23T12:29:45.067Z,61.10
2017-10-23T12:32:12.635Z,61.70
2017-10-23T12:34:40.166Z,61.10
2017-10-23T12:37:07.682Z,61.90
2017-10-23T12:39:36.008Z,62.00
2017-10-23T12:42:03.562Z,61.80
2017-10-23T12:44:31.091Z,62.00
2017-10-23T12:46:59.414Z,61.90
2017-10-23T12:49:26.923Z,61.30
2017-10-23T12:51:55.583Z,61.50
2017-10-23T12:54:23.122Z,62.00
2017-10-23T12:56:50.646Z,61.90
2017-10-23T12:59:18.146Z,62.00
2017-10-23T13:01:45.780Z,62.00
2017-10-23T13:04:13.287Z,62.00
2017-10-23T13:06:40.807Z,62.10
2017-10-23T13:09:08.366Z,62.10
2017-10-23T13:11:35.886Z,62.10
2017-10-23T13:14:04.554Z,61.60
2017-10-23T13:16:32.086Z,62.10
2017-10-23T13:18:59.610Z,62.60
2017-10-23T13:21:27.119Z,62.10
2017-10-23T13:23:54.639Z,62.20
2017-10-23T13:26:22.165Z,62.10
2017-10-23T13:31:18.628Z,61.60
2017-10-23T13:33:46.898Z,62.10
2017-10-23T13:36:15.167Z,62.30
2017-10-23T13:38:43.493Z,62.30
2017-10-23T13:41:11.023Z,62.20
2017-10-23T13:43:38.554Z,62.20
2017-10-23T13:46:06.098Z,62.40
2017-10-23T13:48:33.636Z,62.40
2017-10-23T13:51:01.284Z,62.30
2017-10-23T13:53:28.843Z,62.50
2017-10-23T13:55:56.342Z,62.30
2017-10-23T13:58:23.831Z,62.50
2017-10-23T14:00:52.906Z,61.90
2017-10-23T14:03:20.409Z,62.50
2017-10-23T14:05:47.950Z,61.70
2017-10-23T14:08:15.487Z,62.50
2017-10-23T14:10:43.779Z,63.00
2017-10-23T14:13:12.046Z,62.60
2017-10-23T14:15:40.383Z,62.60
2017-10-23T14:18:08.027Z,62.60
2017-10-23T14:20:36.335Z,62.10
2017-10-23T14:23:05.610Z,63.10
2017-10-23T14:25:33.118Z,62.70
2017-10-23T14:28:00.619Z,62.70
2017-10-23T14:30:28.194Z,62.80
2017-10-23T14:32:55.718Z,62.70
2017-10-23T14:35:23.251Z,62.80
2017-10-23T14:37:50.794Z,62.80
2017-10-23T14:40:18.318Z,62.90
2017-10-23T14:42:45.826Z,62.80
2017-10-23T14:45:13.365Z,62.80
2017-10-23T14:47:40.882Z,62.80
2017-10-23T14:50:08.402Z,62.80
2017-10-23T14:52:35.979Z,62.90
2017-10-23T14:55:04.279Z,63.00
2017-10-23T14:57:31.807Z,62.90
2017-10-23T14:59:59.360Z,62.90
2017-10-23T15:02:26.867Z,63.00
2017-10-23T15:04:54.375Z,62.90
2017-10-23T15:07:21.942Z,62.90
2017-10-23T15:09:49.444Z,62.40
2017-10-23T15:12:16.951Z,63.80
2017-10-23T15:14:44.526Z,63.00
2017-10-23T15:17:13.784Z,62.50
2017-10-23T15:19:41.291Z,62.50
2017-10-23T15:22:09.950Z,62.40
2017-10-23T15:24:37.486Z,62.40
2017-10-23T15:27:04.998Z,62.90
2017-10-23T15:29:34.085Z,62.30
2017-10-23T15:32:09.608Z,62.90
2017-10-23T15:34:37.167Z,63.00
2017-10-23T15:49:43.043Z,61.20
2017-10-23T15:52:11.354Z,61.70
2017-10-23T15:54:38.911Z,61.60
2017-10-23T15:57:06.463Z,61.70
2017-10-23T15:59:33.985Z,61.70
2017-10-23T16:02:01.483Z,61.80
2017-10-23T16:04:29.044Z,61.90
2017-10-23T16:06:56.570Z,61.90
2017-10-23T16:09:24.855Z,62.10
2017-10-23T16:11:53.174Z,62.20
2017-10-23T16:14:21.401Z,61.60
2017-10-23T16:16:50.227Z,61.70
2017-10-23T16:19:17.787Z,62.40
2017-10-23T16:21:45.278Z,62.40
2017-10-23T16:24:12.815Z,62.40
2017-10-23T16:26:40.383Z,62.50
2017-10-23T16:29:07.899Z,62.50
2017-10-23T16:31:36.168Z,62.60
2017-10-23T16:46:37.678Z,61.30
2017-10-23T16:49:05.266Z,61.80
2017-10-23T16:51:33.534Z,61.90
2017-10-23T16:54:01.116Z,61.90
2017-10-23T16:56:28.690Z,62.00
2017-10-23T17:13:47.079Z,60.80
2017-10-23T17:16:14.618Z,63.00
2017-10-23T17:18:42.164Z,63.00
2017-10-23T17:21:09.746Z,62.90
2017-10-23T17:23:38.057Z,62.80
2017-10-23T17:26:06.483Z,62.80
2017-10-23T17:28:34.120Z,62.70
2017-10-23T17:31:01.705Z,62.70
2017-10-23T17:46:12.654Z,57.80
2017-10-23T17:48:40.183Z,59.20
2017-10-23T17:51:08.471Z,60.00
2017-10-23T17:53:37.290Z,60.30
2017-10-23T17:56:04.803Z,60.20
2017-10-23T17:58:32.329Z,60.50
2017-10-23T18:00:59.870Z,60.50
2017-10-23T18:03:27.407Z,60.80
2017-10-23T18:05:54.951Z,60.80
2017-10-23T18:08:23.654Z,59.30
2017-10-23T18:10:51.235Z,59.90
2017-10-23T18:13:18.755Z,59.60
2017-10-23T18:15:47.125Z,60.50
2017-10-23T18:18:15.448Z,60.40
2017-10-23T18:20:42.963Z,60.30
2017-10-23T18:23:10.523Z,60.30
2017-10-23T18:25:38.848Z,59.80
2017-10-23T18:28:06.465Z,59.70
2017-10-23T18:30:34.120Z,59.60
2017-10-23T18:33:01.677Z,59.00
2017-10-23T18:35:29.256Z,59.60
2017-10-23T18:37:57.570Z,59.60
2017-10-23T18:40:25.115Z,60.20
2017-10-23T18:42:52.696Z,59.70
2017-10-23T18:45:20.268Z,59.70
2017-10-23T18:47:47.819Z,59.70
2017-10-23T18:50:15.376Z,59.80
2017-10-23T18:52:42.955Z,59.80
2017-10-23T18:55:10.487Z,59.90
2017-10-23T18:57:37.998Z,60.00
2017-10-23T19:00:05.551Z,60.00
2017-10-23T19:02:33.092Z,60.10
2017-10-23T19:05:00.679Z,60.70
2017-10-23T19:07:28.259Z,60.30
2017-10-23T19:09:57.383Z,59.80
2017-10-23T19:12:24.936Z,59.80
2017-10-23T19:14:52.589Z,60.40
2017-10-23T19:17:20.198Z,59.80
2017-10-23T19:19:47.722Z,60.40
2017-10-23T19:22:15.292Z,59.80
2017-10-23T19:24:42.822Z,60.40
2017-10-23T19:27:11.423Z,60.30
2017-10-23T19:29:38.978Z,60.20
2017-10-23T19:32:06.511Z,60.50
2017-10-23T19:34:35.617Z,60.00
2017-10-23T19:37:03.189Z,60.50
2017-10-23T19:39:30.725Z,60.60
2017-10-23T19:41:59.415Z,60.80
2017-10-23T19:56:27.523Z,60.00
2017-10-23T19:58:55.054Z,60.40
2017-10-23T20:01:22.566Z,60.50
2017-10-23T20:03:50.173Z,60.50
2017-10-23T20:06:17.846Z,60.50
2017-10-23T20:08:45.821Z,60.00
2017-10-23T20:11:13.392Z,60.70
2017-10-23T20:13:41.051Z,60.80
2017-10-23T20:16:08.582Z,60.70
2017-10-23T20:18:36.162Z,60.70
2017-10-23T20:21:03.713Z,60.20
2017-10-23T20:23:31.280Z,60.80
2017-10-23T20:25:58.847Z,60.80
2017-10-23T20:28:26.810Z,60.80
2017-10-23T20:30:54.342Z,60.90
2017-10-23T20:33:22.032Z,60.30
2017-10-23T20:35:49.565Z,60.40
2017-10-23T20:38:17.106Z,60.40
2017-10-23T20:40:45.424Z,61.80
2017-10-23T20:43:12.959Z,60.90
2017-10-23T20:45:40.498Z,60.40
2017-10-23T20:48:08.414Z,61.10
2017-10-23T20:50:36.026Z,61.10
2017-10-23T20:53:03.590Z,61.10
2017-10-23T20:55:32.027Z,61.20
2017-10-23T20:57:59.576Z,60.60
2017-10-23T21:00:27.111Z,61.20
2017-10-23T21:02:54.732Z,61.20
2017-10-23T21:05:22.238Z,61.20
2017-10-23T21:07:49.743Z,61.20
2017-10-23T21:10:17.295Z,61.20
2017-10-23T21:12:44.827Z,61.30
2017-10-23T21:15:12.394Z,61.30
2017-10-23T21:17:39.958Z,61.30
2017-10-23T21:20:07.489Z,61.40
2017-10-23T21:22:35.018Z,61.40
2017-10-23T21:25:02.590Z,61.40
2017-10-23T21:27:30.910Z,61.50
2017-10-23T21:29:58.443Z,60.90
2017-10-23T21:32:26.006Z,61.50
2017-10-23T21:34:53.530Z,61.50
2017-10-23T21:37:21.054Z,61.50
2017-10-23T21:39:49.221Z,60.90
2017-10-23T21:42:16.750Z,60.90
2017-10-23T21:44:44.289Z,61.60
2017-10-23T21:47:11.841Z,61.60
2017-10-23T21:49:39.370Z,61.60
2017-10-23T21:52:06.903Z,61.60
2017-10-23T21:54:34.447Z,61.60
2017-10-23T21:57:02.726Z,61.70
2017-10-23T21:59:31.021Z,61.70
2017-10-23T22:01:58.672Z,61.20
2017-10-23T22:04:26.217Z,61.70
2017-10-23T22:06:55.258Z,61.10
2017-10-23T22:09:22.831Z,61.70
2017-10-23T22:11:50.374Z,61.80
2017-10-23T22:14:17.883Z,61.80
2017-10-23T22:16:45.428Z,61.80
2017-10-23T22:19:12.974Z,61.80
2017-10-23T22:21:40.478Z,61.80
2017-10-23T22:24:09.614Z,61.30
2017-10-23T22:26:37.132Z,61.90
2017-10-23T22:29:05.426Z,62.00
2017-10-23T22:31:32.953Z,61.80
2017-10-23T22:34:00.455Z,61.90
2017-10-23T22:36:27.994Z,62.00
2017-10-23T22:38:55.557Z,62.00
2017-10-23T22:41:23.090Z,62.00
2017-10-23T22:43:51.411Z,62.80
2017-10-23T22:46:19.010Z,61.90
2017-10-23T22:48:46.752Z,62.00
2017-10-23T22:51:14.286Z,62.00
2017-10-23T22:53:41.871Z,62.00
2017-10-23T22:56:09.383Z,62.00
2017-10-23T22:58:38.427Z,61.50
2017-10-23T23:01:05.974Z,62.00
2017-10-23T23:03:33.518Z,62.00
2017-10-23T23:06:01.067Z,62.10
2017-10-23T23:08:31.106Z,62.10
2017-10-23T23:10:59.758Z,61.50
2017-10-23T23:13:28.425Z,61.50
2017-10-23T23:15:56.892Z,62.30
2017-10-23T23:18:26.163Z,61.60
2017-10-23T23:20:53.769Z,61.40
2017-10-23T23:23:21.304Z,62.10
2017-10-23T23:25:48.816Z,62.90
2017-10-23T23:28:16.333Z,62.10
2017-10-23T23:30:43.892Z,62.20
2017-10-23T23:33:11.419Z,62.20
2017-10-23T23:35:39.742Z,62.20
2017-10-23T23:38:07.288Z,61.60
2017-10-23T23:40:34.820Z,62.20
2017-10-23T23:43:02.338Z,62.20
2017-10-23T23:45:31.371Z,61.60
2017-10-23T23:47:58.899Z,61.60
2017-10-23T23:50:27.177Z,62.20
2017-10-23T23:52:56.513Z,62.20
2017-10-23T23:55:24.043Z,61.60
2017-10-23T23:57:51.566Z,62.20
